RYR228K EGPH-ESGG
Flight info
| Callsign | RYR228K |
|---|---|
| Flight time | 1h 28m |
| Altitude | 37000 |
| Route | GRICE P600 ASNUD DCT ALOTI DCT AMSEV DCT KUVUS N607 MAKUR |
| Aircraft | B738/M-SDE2E3FGHIRWXY/LB1 |
Departure
| Time | 2026-04-25 09:21 |
|---|---|
| Airport | Edinburgh Airport (EGPH) |
Arrival
| Time | 2026-04-25 10:49 |
|---|---|
| Airport | Göteborg Landvetter Airport (ESGG) |
| Time | Latitude | Longitude | Altitude | Speed | Heading |
|---|---|---|---|---|---|
| 2026-04-25 08:51 | 55.94702 | -3.36852 | 111 ft | 0 kts | 269° |
| 2026-04-25 09:08 | 55.94703 | -3.36815 | 111 ft | 4 kts | 270° |
| 2026-04-25 09:09 | 55.94702 | -3.36771 | 111 ft | 4 kts | 285° |
| 2026-04-25 09:09 | 55.94689 | -3.36739 | 113 ft | 4 kts | 346° |
| 2026-04-25 09:09 | 55.94663 | -3.36735 | 114 ft | 3 kts | 359° |
| 2026-04-25 09:09 | 55.94659 | -3.36735 | 113 ft | 0 kts | 359° |
| 2026-04-25 09:15 | 55.94672 | -3.36735 | 111 ft | 4 kts | 359° |
| 2026-04-25 09:15 | 55.94714 | -3.36737 | 113 ft | 7 kts | 359° |
| 2026-04-25 09:15 | 55.94763 | -3.36757 | 112 ft | 7 kts | 327° |
| 2026-04-25 09:15 | 55.94811 | -3.36777 | 115 ft | 7 kts | 358° |
| 2026-04-25 09:16 | 55.94866 | -3.36782 | 115 ft | 9 kts | 350° |
| 2026-04-25 09:16 | 55.94918 | -3.36832 | 115 ft | 8 kts | 315° |
| 2026-04-25 09:16 | 55.94914 | -3.36927 | 115 ft | 8 kts | 243° |
| 2026-04-25 09:16 | 55.94886 | -3.37014 | 113 ft | 8 kts | 239° |
| 2026-04-25 09:17 | 55.94801 | -3.37266 | 114 ft | 17 kts | 239° |
| 2026-04-25 09:17 | 55.94732 | -3.37469 | 114 ft | 21 kts | 239° |
| 2026-04-25 09:17 | 55.94651 | -3.37705 | 115 ft | 22 kts | 239° |
| 2026-04-25 09:18 | 55.94572 | -3.37938 | 114 ft | 22 kts | 238° |
| 2026-04-25 09:18 | 55.94501 | -3.38150 | 113 ft | 16 kts | 239° |
| 2026-04-25 09:18 | 55.94443 | -3.38320 | 114 ft | 16 kts | 238° |
| 2026-04-25 09:18 | 55.94387 | -3.38484 | 114 ft | 15 kts | 239° |
| 2026-04-25 09:19 | 55.94332 | -3.38648 | 115 ft | 16 kts | 238° |
| 2026-04-25 09:19 | 55.94283 | -3.38793 | 115 ft | 10 kts | 247° |
| 2026-04-25 09:19 | 55.94314 | -3.38892 | 114 ft | 10 kts | 326° |
| 2026-04-25 09:19 | 55.94374 | -3.38962 | 113 ft | 11 kts | 330° |
| 2026-04-25 09:20 | 55.94425 | -3.38942 | 110 ft | 7 kts | 54° |
| 2026-04-25 09:20 | 55.94430 | -3.38929 | 113 ft | 0 kts | 57° |
| 2026-04-25 09:20 | 55.94489 | -3.38756 | 111 ft | 51 kts | 59° |
| 2026-04-25 09:20 | 55.94807 | -3.37816 | 112 ft | 125 kts | 59° |
| 2026-04-25 09:21 | 55.95352 | -3.36206 | 324 ft | 168 kts | 60° |
| 2026-04-25 09:21 | 55.95973 | -3.34334 | 917 ft | 185 kts | 64° |
| 2026-04-25 09:21 | 55.96735 | -3.32366 | 1320 ft | 202 kts | 44° |
| 2026-04-25 09:21 | 55.97864 | -3.30753 | 1725 ft | 212 kts | 40° |
| 2026-04-25 09:22 | 55.99036 | -3.29099 | 2111 ft | 218 kts | 41° |
| 2026-04-25 09:22 | 56.00402 | -3.27677 | 2388 ft | 232 kts | 23° |
| 2026-04-25 09:22 | 56.01988 | -3.27037 | 2886 ft | 241 kts | 4° |
| 2026-04-25 09:22 | 56.03663 | -3.27277 | 3771 ft | 238 kts | 344° |
| 2026-04-25 09:23 | 56.05180 | -3.28443 | 4442 ft | 249 kts | 324° |
| 2026-04-25 09:23 | 56.06423 | -3.30657 | 5327 ft | 252 kts | 303° |
| 2026-04-25 09:23 | 56.07165 | -3.33480 | 5790 ft | 256 kts | 286° |
| 2026-04-25 09:23 | 56.07586 | -3.36601 | 5987 ft | 261 kts | 283° |
| 2026-04-25 09:24 | 56.07995 | -3.39749 | 6010 ft | 258 kts | 284° |
| 2026-04-25 09:24 | 56.08417 | -3.42830 | 6532 ft | 259 kts | 284° |
| 2026-04-25 09:24 | 56.08865 | -3.46002 | 7050 ft | 263 kts | 285° |
| 2026-04-25 09:24 | 56.09323 | -3.49204 | 7539 ft | 265 kts | 285° |
| 2026-04-25 09:25 | 56.09785 | -3.52420 | 8032 ft | 267 kts | 285° |
| 2026-04-25 09:25 | 56.10425 | -3.55512 | 8516 ft | 266 kts | 300° |
| 2026-04-25 09:25 | 56.11362 | -3.58378 | 9045 ft | 268 kts | 301° |
| 2026-04-25 09:25 | 56.12309 | -3.61288 | 9573 ft | 270 kts | 300° |
| 2026-04-25 09:26 | 56.13311 | -3.64180 | 10074 ft | 276 kts | 310° |
| 2026-04-25 09:26 | 56.14844 | -3.66210 | 10555 ft | 278 kts | 336° |
| 2026-04-25 09:26 | 56.16701 | -3.67227 | 11067 ft | 280 kts | 344° |
| 2026-04-25 09:26 | 56.18614 | -3.67997 | 11544 ft | 284 kts | 353° |
| 2026-04-25 09:27 | 56.20596 | -3.67473 | 11715 ft | 305 kts | 21° |
| 2026-04-25 09:27 | 56.22427 | -3.65304 | 12135 ft | 323 kts | 34° |
| 2026-04-25 09:27 | 56.24262 | -3.62818 | 12645 ft | 333 kts | 35° |
| 2026-04-25 09:27 | 56.26126 | -3.60297 | 13188 ft | 338 kts | 34° |
| 2026-04-25 09:28 | 56.28028 | -3.57775 | 13697 ft | 340 kts | 33° |
| 2026-04-25 09:28 | 56.29941 | -3.55274 | 14216 ft | 341 kts | 33° |
| 2026-04-25 09:28 | 56.31862 | -3.52744 | 14690 ft | 344 kts | 37° |
| 2026-04-25 09:28 | 56.33500 | -3.49563 | 15176 ft | 354 kts | 53° |
| 2026-04-25 09:29 | 56.34707 | -3.45619 | 15858 ft | 361 kts | 63° |
| 2026-04-25 09:29 | 56.35760 | -3.41489 | 16585 ft | 365 kts | 63° |
| 2026-04-25 09:29 | 56.36822 | -3.37293 | 17263 ft | 370 kts | 63° |
| 2026-04-25 09:29 | 56.37896 | -3.33056 | 17947 ft | 374 kts | 63° |
| 2026-04-25 09:30 | 56.38985 | -3.28770 | 18619 ft | 378 kts | 63° |
| 2026-04-25 09:30 | 56.40089 | -3.24440 | 19229 ft | 381 kts | 63° |
| 2026-04-25 09:30 | 56.41201 | -3.20082 | 19860 ft | 384 kts | 63° |
| 2026-04-25 09:30 | 56.42321 | -3.15699 | 20478 ft | 386 kts | 63° |
| 2026-04-25 09:31 | 56.43453 | -3.11270 | 21075 ft | 390 kts | 63° |
| 2026-04-25 09:31 | 56.44594 | -3.06797 | 21670 ft | 393 kts | 63° |
| 2026-04-25 09:31 | 56.45739 | -3.02306 | 22251 ft | 396 kts | 64° |
| 2026-04-25 09:31 | 56.46895 | -2.97761 | 22817 ft | 399 kts | 64° |
| 2026-04-25 09:32 | 56.48060 | -2.93175 | 23381 ft | 403 kts | 64° |
| 2026-04-25 09:32 | 56.49231 | -2.88553 | 23932 ft | 406 kts | 64° |
| 2026-04-25 09:32 | 56.50411 | -2.83892 | 24386 ft | 409 kts | 63° |
| 2026-04-25 09:32 | 56.51594 | -2.79203 | 24827 ft | 411 kts | 63° |
| 2026-04-25 09:33 | 56.52785 | -2.74470 | 25280 ft | 414 kts | 64° |
| 2026-04-25 09:33 | 56.53984 | -2.69698 | 25723 ft | 417 kts | 64° |
| 2026-04-25 09:33 | 56.55188 | -2.64893 | 26163 ft | 420 kts | 63° |
| 2026-04-25 09:33 | 56.56379 | -2.60131 | 26603 ft | 422 kts | 63° |
| 2026-04-25 09:34 | 56.57595 | -2.55262 | 27035 ft | 424 kts | 63° |
| 2026-04-25 09:34 | 56.58811 | -2.50376 | 27454 ft | 427 kts | 64° |
| 2026-04-25 09:34 | 56.60038 | -2.45440 | 27860 ft | 430 kts | 64° |
| 2026-04-25 09:34 | 56.61270 | -2.40473 | 28261 ft | 433 kts | 64° |
| 2026-04-25 09:35 | 56.62504 | -2.35485 | 28651 ft | 435 kts | 64° |
| 2026-04-25 09:35 | 56.63747 | -2.30449 | 29060 ft | 437 kts | 63° |
| 2026-04-25 09:35 | 56.64991 | -2.25397 | 29472 ft | 439 kts | 64° |
| 2026-04-25 09:35 | 56.66238 | -2.20320 | 29838 ft | 442 kts | 64° |
| 2026-04-25 09:36 | 56.67494 | -2.15197 | 30199 ft | 444 kts | 64° |
| 2026-04-25 09:36 | 56.68752 | -2.10051 | 30506 ft | 447 kts | 64° |
| 2026-04-25 09:36 | 56.70014 | -2.04878 | 30782 ft | 449 kts | 64° |
| 2026-04-25 09:36 | 56.71283 | -1.99666 | 31053 ft | 452 kts | 64° |
| 2026-04-25 09:37 | 56.72558 | -1.94416 | 31327 ft | 454 kts | 64° |
| 2026-04-25 09:37 | 56.73831 | -1.89157 | 31663 ft | 454 kts | 64° |
| 2026-04-25 09:37 | 56.75103 | -1.83892 | 32058 ft | 453 kts | 64° |
| 2026-04-25 09:37 | 56.76366 | -1.78649 | 32441 ft | 452 kts | 64° |
| 2026-04-25 09:38 | 56.77632 | -1.73384 | 32783 ft | 453 kts | 63° |
| 2026-04-25 09:38 | 56.78892 | -1.68129 | 33159 ft | 452 kts | 63° |
| 2026-04-25 09:38 | 56.80147 | -1.62885 | 33525 ft | 451 kts | 63° |
| 2026-04-25 09:38 | 56.81401 | -1.57630 | 33845 ft | 452 kts | 63° |
| 2026-04-25 09:39 | 56.82656 | -1.52361 | 34153 ft | 452 kts | 63° |
| 2026-04-25 09:39 | 56.83907 | -1.47096 | 34540 ft | 449 kts | 63° |
| 2026-04-25 09:39 | 56.85134 | -1.41911 | 35131 ft | 441 kts | 63° |
| 2026-04-25 09:40 | 56.87559 | -1.31636 | 35657 ft | 442 kts | 63° |
| 2026-04-25 09:40 | 56.88777 | -1.26466 | 35850 ft | 443 kts | 63° |
| 2026-04-25 09:40 | 56.89992 | -1.21293 | 36152 ft | 442 kts | 63° |
| 2026-04-25 09:40 | 56.91198 | -1.16141 | 36514 ft | 440 kts | 63° |
| 2026-04-25 09:41 | 56.92399 | -1.10999 | 36817 ft | 438 kts | 63° |
| 2026-04-25 09:41 | 56.93595 | -1.05868 | 37082 ft | 438 kts | 63° |
| 2026-04-25 09:41 | 56.94789 | -1.00734 | 37250 ft | 439 kts | 63° |
| 2026-04-25 09:41 | 56.95991 | -0.95558 | 37234 ft | 443 kts | 63° |
| 2026-04-25 09:42 | 56.98393 | -0.85161 | 37235 ft | 442 kts | 63° |
| 2026-04-25 09:42 | 57.00757 | -0.74869 | 37228 ft | 435 kts | 63° |
| 2026-04-25 09:43 | 57.03097 | -0.64645 | 37231 ft | 435 kts | 63° |
| 2026-04-25 09:43 | 57.05431 | -0.54400 | 37229 ft | 434 kts | 63° |
| 2026-04-25 09:44 | 57.07740 | -0.44216 | 37225 ft | 435 kts | 63° |
| 2026-04-25 09:44 | 57.10071 | -0.33882 | 37224 ft | 435 kts | 63° |
| 2026-04-25 09:45 | 57.12385 | -0.23572 | 37239 ft | 436 kts | 64° |
| 2026-04-25 09:45 | 57.14691 | -0.13249 | 37226 ft | 436 kts | 64° |
| 2026-04-25 09:46 | 57.16969 | -0.02995 | 37222 ft | 436 kts | 64° |
| 2026-04-25 09:46 | 57.19262 | 0.07372 | 37222 ft | 436 kts | 63° |
| 2026-04-25 09:47 | 57.21541 | 0.17728 | 37216 ft | 436 kts | 63° |
| 2026-04-25 09:47 | 57.23810 | 0.28094 | 37217 ft | 435 kts | 64° |
| 2026-04-25 09:48 | 57.26068 | 0.38458 | 37215 ft | 435 kts | 64° |
| 2026-04-25 09:48 | 57.27953 | 0.47148 | 37212 ft | 435 kts | 64° |
| 2026-04-25 09:49 | 57.30178 | 0.57457 | 37209 ft | 434 kts | 64° |
| 2026-04-25 09:49 | 57.32410 | 0.67847 | 37218 ft | 435 kts | 64° |
| 2026-04-25 09:50 | 57.34632 | 0.78245 | 37206 ft | 435 kts | 64° |
| 2026-04-25 09:50 | 57.36849 | 0.88669 | 37203 ft | 435 kts | 64° |
| 2026-04-25 09:51 | 57.39056 | 0.99105 | 37198 ft | 436 kts | 64° |
| 2026-04-25 09:51 | 57.41259 | 1.09570 | 37204 ft | 436 kts | 64° |
| 2026-04-25 09:52 | 57.43461 | 1.20088 | 37233 ft | 437 kts | 63° |
| 2026-04-25 09:52 | 57.45662 | 1.30652 | 37206 ft | 440 kts | 64° |
| 2026-04-25 09:53 | 57.47863 | 1.41270 | 37197 ft | 442 kts | 64° |
| 2026-04-25 09:53 | 57.50064 | 1.51952 | 37185 ft | 443 kts | 64° |
| 2026-04-25 09:54 | 57.52263 | 1.62678 | 37184 ft | 444 kts | 64° |
| 2026-04-25 09:54 | 57.54460 | 1.73454 | 37177 ft | 445 kts | 64° |
| 2026-04-25 09:55 | 57.56651 | 1.84255 | 37197 ft | 446 kts | 63° |
| 2026-04-25 09:55 | 57.58835 | 1.95086 | 37175 ft | 446 kts | 64° |
| 2026-04-25 09:56 | 57.60993 | 2.05845 | 37169 ft | 446 kts | 64° |
| 2026-04-25 09:56 | 57.63170 | 2.16756 | 37159 ft | 445 kts | 64° |
| 2026-04-25 09:57 | 57.65313 | 2.27569 | 37140 ft | 443 kts | 63° |
| 2026-04-25 09:57 | 57.67423 | 2.38257 | 37135 ft | 440 kts | 63° |
| 2026-04-25 09:58 | 57.69537 | 2.49021 | 37135 ft | 437 kts | 63° |
| 2026-04-25 09:58 | 57.71601 | 2.59596 | 37135 ft | 435 kts | 63° |
| 2026-04-25 09:59 | 57.73663 | 2.70214 | 37127 ft | 433 kts | 63° |
| 2026-04-25 09:59 | 57.75710 | 2.80808 | 37128 ft | 433 kts | 63° |
| 2026-04-25 10:00 | 57.77746 | 2.91404 | 37138 ft | 433 kts | 63° |
| 2026-04-25 10:00 | 57.79779 | 3.02045 | 37137 ft | 434 kts | 63° |
| 2026-04-25 10:01 | 57.81815 | 3.12758 | 37136 ft | 438 kts | 63° |
| 2026-04-25 10:01 | 57.83856 | 3.23559 | 37127 ft | 440 kts | 63° |
| 2026-04-25 10:02 | 57.85898 | 3.34435 | 37126 ft | 443 kts | 63° |
| 2026-04-25 10:02 | 57.87941 | 3.45375 | 37158 ft | 445 kts | 63° |
| 2026-04-25 10:03 | 57.89964 | 3.56389 | 37117 ft | 449 kts | 66° |
| 2026-04-25 10:03 | 57.90762 | 3.68249 | 37139 ft | 468 kts | 85° |
| 2026-04-25 10:04 | 57.90429 | 3.80510 | 37106 ft | 470 kts | 86° |
| 2026-04-25 10:04 | 57.90021 | 3.92689 | 37092 ft | 469 kts | 86° |
| 2026-04-25 10:05 | 57.89646 | 4.04932 | 37091 ft | 468 kts | 86° |
| 2026-04-25 10:05 | 57.89294 | 4.17147 | 37087 ft | 468 kts | 86° |
| 2026-04-25 10:06 | 57.88941 | 4.29347 | 37124 ft | 468 kts | 86° |
| 2026-04-25 10:06 | 57.88577 | 4.41566 | 37085 ft | 469 kts | 86° |
| 2026-04-25 10:07 | 57.88197 | 4.53805 | 37074 ft | 469 kts | 86° |
| 2026-04-25 10:07 | 57.87805 | 4.66062 | 37066 ft | 470 kts | 86° |
| 2026-04-25 10:08 | 57.87400 | 4.78331 | 37067 ft | 471 kts | 86° |
| 2026-04-25 10:08 | 57.86982 | 4.90634 | 37089 ft | 473 kts | 87° |
| 2026-04-25 10:09 | 57.86551 | 5.02988 | 37071 ft | 475 kts | 87° |
| 2026-04-25 10:09 | 57.86105 | 5.15390 | 37042 ft | 477 kts | 87° |
| 2026-04-25 10:10 | 57.85645 | 5.27839 | 37041 ft | 478 kts | 87° |
| 2026-04-25 10:10 | 57.85172 | 5.40316 | 37034 ft | 480 kts | 88° |
| 2026-04-25 10:11 | 57.84686 | 5.52805 | 37033 ft | 480 kts | 88° |
| 2026-04-25 10:11 | 57.84186 | 5.65324 | 37022 ft | 481 kts | 88° |
| 2026-04-25 10:12 | 57.83674 | 5.77830 | 37021 ft | 481 kts | 88° |
| 2026-04-25 10:13 | 57.82884 | 5.96561 | 37020 ft | 480 kts | 88° |
| 2026-04-25 10:13 | 57.82346 | 6.08963 | 37069 ft | 480 kts | 88° |
| 2026-04-25 10:14 | 57.81792 | 6.21449 | 37017 ft | 481 kts | 88° |
| 2026-04-25 10:14 | 57.81226 | 6.33929 | 36997 ft | 481 kts | 88° |
| 2026-04-25 10:15 | 57.80646 | 6.46427 | 36997 ft | 480 kts | 88° |
| 2026-04-25 10:15 | 57.80056 | 6.58887 | 36984 ft | 480 kts | 89° |
| 2026-04-25 10:16 | 57.79453 | 6.71370 | 37042 ft | 481 kts | 89° |
| 2026-04-25 10:16 | 57.78836 | 6.83905 | 36981 ft | 484 kts | 89° |
| 2026-04-25 10:17 | 57.78203 | 6.96482 | 36971 ft | 485 kts | 89° |
| 2026-04-25 10:17 | 57.77555 | 7.09091 | 36961 ft | 487 kts | 89° |
| 2026-04-25 10:18 | 57.76892 | 7.21747 | 36957 ft | 489 kts | 89° |
| 2026-04-25 10:18 | 57.76213 | 7.34458 | 36875 ft | 495 kts | 90° |
| 2026-04-25 10:18 | 57.75861 | 7.41023 | 36382 ft | 501 kts | 90° |
| 2026-04-25 10:19 | 57.75512 | 7.47366 | 36043 ft | 496 kts | 89° |
| 2026-04-25 10:19 | 57.75150 | 7.53862 | 35613 ft | 493 kts | 89° |
| 2026-04-25 10:19 | 57.74797 | 7.60137 | 35226 ft | 490 kts | 89° |
| 2026-04-25 10:19 | 57.74439 | 7.66471 | 34836 ft | 488 kts | 89° |
| 2026-04-25 10:20 | 57.74081 | 7.72773 | 34445 ft | 486 kts | 89° |
| 2026-04-25 10:20 | 57.73722 | 7.79051 | 34023 ft | 485 kts | 89° |
| 2026-04-25 10:20 | 57.73361 | 7.85305 | 33590 ft | 483 kts | 89° |
| 2026-04-25 10:20 | 57.72998 | 7.91545 | 33239 ft | 481 kts | 88° |
| 2026-04-25 10:21 | 57.72634 | 7.97749 | 32791 ft | 479 kts | 89° |
| 2026-04-25 10:21 | 57.72268 | 8.03937 | 32385 ft | 477 kts | 89° |
| 2026-04-25 10:21 | 57.71900 | 8.10082 | 32000 ft | 475 kts | 89° |
| 2026-04-25 10:21 | 57.71532 | 8.16189 | 31622 ft | 472 kts | 89° |
| 2026-04-25 10:22 | 57.71162 | 8.22278 | 31241 ft | 470 kts | 89° |
| 2026-04-25 10:22 | 57.70916 | 8.26308 | 30987 ft | 469 kts | 89° |
| 2026-04-25 10:22 | 57.70419 | 8.34375 | 30495 ft | 466 kts | 89° |
| 2026-04-25 10:22 | 57.70045 | 8.40394 | 30129 ft | 465 kts | 89° |
| 2026-04-25 10:23 | 57.69670 | 8.46381 | 29707 ft | 464 kts | 89° |
| 2026-04-25 10:23 | 57.69293 | 8.52358 | 29336 ft | 462 kts | 90° |
| 2026-04-25 10:23 | 57.68915 | 8.58313 | 28875 ft | 461 kts | 90° |
| 2026-04-25 10:23 | 57.68534 | 8.64258 | 28471 ft | 459 kts | 90° |
| 2026-04-25 10:24 | 57.68154 | 8.70155 | 28085 ft | 456 kts | 90° |
| 2026-04-25 10:24 | 57.67773 | 8.76023 | 27670 ft | 454 kts | 90° |
| 2026-04-25 10:24 | 57.67332 | 8.81863 | 27274 ft | 456 kts | 96° |
| 2026-04-25 10:24 | 57.66601 | 8.87647 | 26849 ft | 458 kts | 99° |
| 2026-04-25 10:25 | 57.65762 | 8.93377 | 26434 ft | 457 kts | 101° |
| 2026-04-25 10:25 | 57.64887 | 8.99080 | 26041 ft | 456 kts | 101° |
| 2026-04-25 10:25 | 57.64013 | 9.04754 | 25684 ft | 454 kts | 101° |
| 2026-04-25 10:25 | 57.63154 | 9.10400 | 25360 ft | 452 kts | 101° |
| 2026-04-25 10:26 | 57.62304 | 9.16065 | 24918 ft | 453 kts | 101° |
| 2026-04-25 10:26 | 57.61463 | 9.21725 | 24539 ft | 452 kts | 101° |
| 2026-04-25 10:26 | 57.60629 | 9.27363 | 24221 ft | 449 kts | 101° |
| 2026-04-25 10:26 | 57.59800 | 9.32968 | 23905 ft | 447 kts | 101° |
| 2026-04-25 10:27 | 57.58975 | 9.38536 | 23573 ft | 445 kts | 101° |
| 2026-04-25 10:27 | 57.58149 | 9.44101 | 23191 ft | 444 kts | 101° |
| 2026-04-25 10:27 | 57.57325 | 9.49621 | 22852 ft | 441 kts | 101° |
| 2026-04-25 10:27 | 57.56516 | 9.55025 | 22497 ft | 437 kts | 101° |
| 2026-04-25 10:28 | 57.55707 | 9.60420 | 22269 ft | 428 kts | 101° |
| 2026-04-25 10:28 | 57.54906 | 9.65716 | 21858 ft | 421 kts | 101° |
| 2026-04-25 10:28 | 57.54102 | 9.71025 | 21210 ft | 422 kts | 101° |
| 2026-04-25 10:28 | 57.53306 | 9.76275 | 20656 ft | 419 kts | 101° |
| 2026-04-25 10:29 | 57.52528 | 9.81383 | 20217 ft | 414 kts | 102° |
| 2026-04-25 10:29 | 57.51746 | 9.86498 | 19766 ft | 408 kts | 102° |
| 2026-04-25 10:29 | 57.50972 | 9.91550 | 19296 ft | 404 kts | 102° |
| 2026-04-25 10:29 | 57.50203 | 9.96555 | 18867 ft | 399 kts | 102° |
| 2026-04-25 10:30 | 57.49444 | 10.01478 | 18492 ft | 393 kts | 102° |
| 2026-04-25 10:30 | 57.48937 | 10.04760 | 18268 ft | 391 kts | 102° |
| 2026-04-25 10:30 | 57.47942 | 10.11189 | 17775 ft | 391 kts | 102° |
| 2026-04-25 10:30 | 57.47191 | 10.16030 | 17411 ft | 389 kts | 102° |
| 2026-04-25 10:31 | 57.46441 | 10.20849 | 17070 ft | 387 kts | 102° |
| 2026-04-25 10:31 | 57.45692 | 10.25640 | 16754 ft | 386 kts | 103° |
| 2026-04-25 10:31 | 57.44946 | 10.30399 | 16420 ft | 384 kts | 103° |
| 2026-04-25 10:31 | 57.44197 | 10.35163 | 16054 ft | 383 kts | 103° |
| 2026-04-25 10:32 | 57.43453 | 10.39890 | 15732 ft | 381 kts | 103° |
| 2026-04-25 10:32 | 57.42707 | 10.44607 | 15405 ft | 380 kts | 103° |
| 2026-04-25 10:32 | 57.41964 | 10.49294 | 15070 ft | 378 kts | 104° |
| 2026-04-25 10:32 | 57.41224 | 10.53951 | 14751 ft | 376 kts | 104° |
| 2026-04-25 10:33 | 57.40483 | 10.58601 | 14419 ft | 373 kts | 104° |
| 2026-04-25 10:33 | 57.39753 | 10.63165 | 14078 ft | 365 kts | 104° |
| 2026-04-25 10:33 | 57.39039 | 10.67616 | 13762 ft | 356 kts | 104° |
| 2026-04-25 10:33 | 57.38340 | 10.71966 | 13443 ft | 350 kts | 104° |
| 2026-04-25 10:34 | 57.37647 | 10.76278 | 13117 ft | 348 kts | 104° |
| 2026-04-25 10:34 | 57.36954 | 10.80574 | 12818 ft | 347 kts | 105° |
| 2026-04-25 10:34 | 57.36267 | 10.84836 | 12505 ft | 345 kts | 105° |
| 2026-04-25 10:34 | 57.35578 | 10.89090 | 12198 ft | 343 kts | 105° |
| 2026-04-25 10:35 | 57.34891 | 10.93311 | 11890 ft | 342 kts | 105° |
| 2026-04-25 10:35 | 57.34249 | 10.97529 | 11566 ft | 339 kts | 97° |
| 2026-04-25 10:35 | 57.34271 | 11.01795 | 11347 ft | 324 kts | 72° |
| 2026-04-25 10:35 | 57.34693 | 11.04377 | 11276 ft | 312 kts | 62° |
| 2026-04-25 10:36 | 57.35520 | 11.08060 | 11016 ft | 308 kts | 59° |
| 2026-04-25 10:36 | 57.36378 | 11.11684 | 10741 ft | 307 kts | 59° |
| 2026-04-25 10:36 | 57.37230 | 11.15287 | 10453 ft | 306 kts | 59° |
| 2026-04-25 10:36 | 57.38344 | 11.20084 | 10065 ft | 305 kts | 60° |
| 2026-04-25 10:37 | 57.39167 | 11.23686 | 9867 ft | 301 kts | 61° |
| 2026-04-25 10:37 | 57.39970 | 11.27226 | 9643 ft | 298 kts | 61° |
| 2026-04-25 10:37 | 57.40511 | 11.29616 | 9436 ft | 297 kts | 61° |
| 2026-04-25 10:37 | 57.41307 | 11.33146 | 9129 ft | 296 kts | 61° |
| 2026-04-25 10:38 | 57.42098 | 11.36669 | 8868 ft | 295 kts | 62° |
| 2026-04-25 10:38 | 57.42883 | 11.40170 | 8581 ft | 293 kts | 62° |
| 2026-04-25 10:38 | 57.43758 | 11.43539 | 8350 ft | 287 kts | 56° |
| 2026-04-25 10:38 | 57.44719 | 11.46763 | 8083 ft | 285 kts | 55° |
| 2026-04-25 10:39 | 57.45691 | 11.49957 | 7807 ft | 283 kts | 54° |
| 2026-04-25 10:39 | 57.46656 | 11.53142 | 7531 ft | 282 kts | 55° |
| 2026-04-25 10:39 | 57.47608 | 11.56314 | 7256 ft | 280 kts | 56° |
| 2026-04-25 10:39 | 57.48549 | 11.59469 | 6976 ft | 279 kts | 55° |
| 2026-04-25 10:40 | 57.49471 | 11.62575 | 6708 ft | 277 kts | 54° |
| 2026-04-25 10:40 | 57.50406 | 11.65739 | 6441 ft | 275 kts | 57° |
| 2026-04-25 10:40 | 57.51310 | 11.68812 | 6170 ft | 274 kts | 58° |
| 2026-04-25 10:40 | 57.52223 | 11.71917 | 5880 ft | 272 kts | 57° |
| 2026-04-25 10:41 | 57.53125 | 11.74993 | 5599 ft | 270 kts | 57° |
| 2026-04-25 10:41 | 57.54019 | 11.78049 | 5351 ft | 267 kts | 56° |
| 2026-04-25 10:41 | 57.54886 | 11.81016 | 5306 ft | 254 kts | 53° |
| 2026-04-25 10:41 | 57.55557 | 11.83985 | 5075 ft | 252 kts | 77° |
| 2026-04-25 10:42 | 57.55347 | 11.87151 | 4952 ft | 242 kts | 103° |
| 2026-04-25 10:42 | 57.54698 | 11.89994 | 4756 ft | 231 kts | 111° |
| 2026-04-25 10:42 | 57.53997 | 11.92644 | 4519 ft | 228 kts | 111° |
| 2026-04-25 10:42 | 57.53302 | 11.95265 | 4286 ft | 224 kts | 112° |
| 2026-04-25 10:43 | 57.52624 | 11.97853 | 4025 ft | 221 kts | 110° |
| 2026-04-25 10:43 | 57.51963 | 12.00405 | 3796 ft | 218 kts | 112° |
| 2026-04-25 10:43 | 57.51309 | 12.02944 | 3507 ft | 216 kts | 110° |
| 2026-04-25 10:43 | 57.50668 | 12.05453 | 3265 ft | 212 kts | 110° |
| 2026-04-25 10:44 | 57.50052 | 12.07839 | 3237 ft | 201 kts | 111° |
| 2026-04-25 10:44 | 57.49528 | 12.10195 | 3216 ft | 191 kts | 94° |
| 2026-04-25 10:44 | 57.49776 | 12.12398 | 3172 ft | 168 kts | 40° |
| 2026-04-25 10:44 | 57.50709 | 12.13611 | 3126 ft | 166 kts | 21° |
| 2026-04-25 10:45 | 57.51721 | 12.14644 | 3009 ft | 162 kts | 21° |
| 2026-04-25 10:45 | 57.52697 | 12.15574 | 2976 ft | 154 kts | 19° |
| 2026-04-25 10:45 | 57.53672 | 12.16471 | 3006 ft | 161 kts | 18° |
| 2026-04-25 10:45 | 57.54691 | 12.17401 | 2838 ft | 161 kts | 19° |
| 2026-04-25 10:46 | 57.55668 | 12.18299 | 2607 ft | 151 kts | 18° |
| 2026-04-25 10:46 | 57.56568 | 12.19122 | 2444 ft | 138 kts | 17° |
| 2026-04-25 10:46 | 57.57429 | 12.19904 | 2225 ft | 136 kts | 18° |
| 2026-04-25 10:46 | 57.58271 | 12.20671 | 2053 ft | 135 kts | 17° |
| 2026-04-25 10:47 | 57.59119 | 12.21446 | 1848 ft | 133 kts | 16° |
| 2026-04-25 10:47 | 57.59955 | 12.22206 | 1680 ft | 135 kts | 16° |
| 2026-04-25 10:47 | 57.60807 | 12.22984 | 1460 ft | 137 kts | 16° |
| 2026-04-25 10:47 | 57.61651 | 12.23746 | 1322 ft | 138 kts | 18° |
| 2026-04-25 10:48 | 57.62524 | 12.24550 | 1125 ft | 140 kts | 18° |
| 2026-04-25 10:48 | 57.63382 | 12.25343 | 907 ft | 138 kts | 21° |
| 2026-04-25 10:48 | 57.64240 | 12.26160 | 708 ft | 138 kts | 13° |
| 2026-04-25 10:48 | 57.65128 | 12.26946 | 516 ft | 143 kts | 18° |
| 2026-04-25 10:49 | 57.65937 | 12.27655 | 505 ft | 113 kts | 27° |
| 2026-04-25 10:49 | 57.66506 | 12.28183 | 510 ft | 56 kts | 26° |
| 2026-04-25 10:49 | 57.66648 | 12.28398 | 512 ft | 18 kts | 53° |
| 2026-04-25 10:49 | 57.66699 | 12.28526 | 511 ft | 8 kts | 54° |
| 2026-04-25 10:50 | 57.66730 | 12.28614 | 511 ft | 8 kts | 55° |
| 2026-04-25 10:50 | 57.66761 | 12.28699 | 512 ft | 8 kts | 57° |
| 2026-04-25 10:50 | 57.66799 | 12.28790 | 512 ft | 10 kts | 40° |
| 2026-04-25 10:50 | 57.66827 | 12.28884 | 513 ft | 8 kts | 97° |
| 2026-04-25 10:51 | 57.66806 | 12.28980 | 515 ft | 8 kts | 115° |
| 2026-04-25 10:51 | 57.66782 | 12.29072 | 515 ft | 8 kts | 116° |
| 2026-04-25 10:51 | 57.66749 | 12.29124 | 515 ft | 7 kts | 184° |
| 2026-04-25 10:51 | 57.66706 | 12.29087 | 515 ft | 8 kts | 206° |
| 2026-04-25 10:52 | 57.66650 | 12.29036 | 515 ft | 10 kts | 206° |
| 2026-04-25 10:52 | 57.66575 | 12.28968 | 515 ft | 11 kts | 205° |
| 2026-04-25 10:52 | 57.66521 | 12.28967 | 515 ft | 8 kts | 160° |
| 2026-04-25 10:52 | 57.66471 | 12.28949 | 515 ft | 8 kts | 204° |
| 2026-04-25 10:53 | 57.66435 | 12.28903 | 515 ft | 4 kts | 246° |
| 2026-04-25 10:53 | 57.66440 | 12.28864 | 515 ft | 3 kts | 293° |
| 2026-04-25 10:53 | 57.66449 | 12.28830 | 515 ft | 3 kts | 296° |
| 2026-04-25 10:53 | 57.66456 | 12.28803 | 515 ft | 1 kts | 296° |
| 2026-04-25 10:54 | 57.66457 | 12.28801 | 515 ft | 0 kts | 296° |